Evansville Regional Airport Evansville US
ICAO: KEVV
IATA: EVV
Category: Medium
Scheduled Services: Yes

Elevation: 418 ft
TransAlt. 18000 ft.

Airport Communications:
APP/DEP:126.4
ATIS:120.2
CLNC DEL:126.6
CTAF:118.7
GND:121.9
TERRE HAUTE RDO:122.65
TWR:118.7
UNICOM:122.95

KEVV Zoom In..

If Map Doesn't Load, Click Here

Runways:

(A) RW 04 length 8020 ft width 150 ft
ILS 109.90 / hdg 38

(B) RW 09 length 3497 ft width 75 ft
---- / hdg 91

(C) RW 18 length 6286 ft width 150 ft
---- / hdg 181

(D) RW 22 length 8020 ft width 150 ft
ILS 109.90 / hdg 218

(E) RW 27 length 3497 ft width 75 ft
---- / hdg 271

(F) RW 36 length 6286 ft width 150 ft
---- / hdg 1

Location; KEVV
Day. 21 / Time. 15.54 Zulu
* Altimeter: 30.04
* Temperature: 30° c. 86°f.
* Wind from: 270° Speed 08 kn.
Dewpoint: 22° c.
Visibility: 10 Statute Miles.
Clouds: Few 6000 ft.

KEVV 211554Z 27008KT 10SM FEW060 30/22 A3004 RMK AO2 SLP168 T03000217


Wind From 270°
Speed 08 kn.

 
 
jpsmedia.com for Web Design worldairports.se 2018   terms of use